sensor_id;sensor_type;location;lat;lon;timestamp;pressure;altitude;pressure_sealevel;temperature;humidity
9415;BME280;4746;35.664;139.738;2022-10-31T00:01:38;101343.09;;;19.08;38.78
9415;BME280;4746;35.664;139.738;2022-10-31T00:04:06;101332.69;;;19.05;38.69
9415;BME280;4746;35.664;139.738;2022-10-31T00:06:34;101337.91;;;19.08;38.60
9415;BME280;4746;35.664;139.738;2022-10-31T00:09:04;101342.22;;;19.11;38.65
9415;BME280;4746;35.664;139.738;2022-10-31T00:11:33;101339.63;;;19.09;38.53
9415;BME280;4746;35.664;139.738;2022-10-31T00:14:00;101336.13;;;19.13;37.89
9415;BME280;4746;35.664;139.738;2022-10-31T00:16:29;101340.44;;;19.16;38.22
9415;BME280;4746;35.664;139.738;2022-10-31T00:19:03;101330.84;;;19.22;38.45
9415;BME280;4746;35.664;139.738;2022-10-31T00:21:32;101337.75;;;19.23;38.03
9415;BME280;4746;35.664;139.738;2022-10-31T00:24:01;101330.81;;;19.25;38.12
9415;BME280;4746;35.664;139.738;2022-10-31T00:26:32;101330.72;;;19.33;38.40
9415;BME280;4746;35.664;139.738;2022-10-31T00:29:00;101337.59;;;19.38;38.16
9415;BME280;4746;35.664;139.738;2022-10-31T00:31:28;101315.88;;;19.45;38.24
9415;BME280;4746;35.664;139.738;2022-10-31T00:33:57;101317.50;;;19.53;38.30
9415;BME280;4746;35.664;139.738;2022-10-31T00:36:25;101320.91;;;19.58;38.02
9415;BME280;4746;35.664;139.738;2022-10-31T00:38:52;101325.16;;;19.64;37.79
9415;BME280;4746;35.664;139.738;2022-10-31T00:41:20;101332.06;;;19.68;37.73
9415;BME280;4746;35.664;139.738;2022-10-31T00:43:47;101325.06;;;19.73;37.30
9415;BME280;4746;35.664;139.738;2022-10-31T00:46:15;101313.69;;;19.80;37.11
9415;BME280;4746;35.664;139.738;2022-10-31T00:48:43;101323.22;;;19.81;37.02
9415;BME280;4746;35.664;139.738;2022-10-31T00:51:11;101318.81;;;19.84;37.19
9415;BME280;4746;35.664;139.738;2022-10-31T00:53:38;101310.94;;;19.90;37.13
9415;BME280;4746;35.664;139.738;2022-10-31T00:56:06;101305.75;;;19.89;37.13
9415;BME280;4746;35.664;139.738;2022-10-31T00:58:34;101304.00;;;19.91;36.96
9415;BME280;4746;35.664;139.738;2022-10-31T01:01:02;101310.91;;;19.98;36.94
9415;BME280;4746;35.664;139.738;2022-10-31T01:03:33;101306.44;;;20.06;36.46
9415;BME280;4746;35.664;139.738;2022-10-31T01:06:07;101308.03;;;20.14;36.49
9415;BME280;4746;35.664;139.738;2022-10-31T01:08:37;101303.66;;;20.18;36.33
9415;BME280;4746;35.664;139.738;2022-10-31T01:11:18;101304.44;;;20.24;35.90
9415;BME280;4746;35.664;139.738;2022-10-31T01:13:49;101299.22;;;20.25;35.94
9415;BME280;4746;35.664;139.738;2022-10-31T01:16:22;101297.38;;;20.30;36.18
9415;BME280;4746;35.664;139.738;2022-10-31T01:18:51;101301.63;;;20.37;35.96
9415;BME280;4746;35.664;139.738;2022-10-31T01:21:24;101297.22;;;20.41;36.05
9415;BME280;4746;35.664;139.738;2022-10-31T01:23:55;101294.44;;;20.51;35.57
9415;BME280;4746;35.664;139.738;2022-10-31T01:26:27;101286.41;;;20.66;35.66
9415;BME280;4746;35.664;139.738;2022-10-31T01:29:03;101291.53;;;20.69;35.62
9415;BME280;4746;35.664;139.738;2022-10-31T01:31:38;101283.63;;;20.78;35.33
9415;BME280;4746;35.664;139.738;2022-10-31T01:34:06;101288.72;;;20.84;35.49
9415;BME280;4746;35.664;139.738;2022-10-31T01:36:37;101290.16;;;21.00;35.37
9415;BME280;4746;35.664;139.738;2022-10-31T01:39:11;101293.41;;;21.11;34.99
9415;BME280;4746;35.664;139.738;2022-10-31T01:41:48;101290.75;;;21.15;34.84
9415;BME280;4746;35.664;139.738;2022-10-31T01:47:08;101279.88;;;21.36;34.42
9415;BME280;4746;35.664;139.738;2022-10-31T01:49:49;101285.91;;;21.40;34.39
9415;BME280;4746;35.664;139.738;2022-10-31T01:52:27;101277.94;;;21.46;34.14
9415;BME280;4746;35.664;139.738;2022-10-31T01:55:09;101274.28;;;21.57;34.31
9415;BME280;4746;35.664;139.738;2022-10-31T01:57:45;101280.09;;;21.69;33.71
9415;BME280;4746;35.664;139.738;2022-10-31T02:00:14;101283.41;;;21.77;33.64
9415;BME280;4746;35.664;139.738;2022-10-31T02:02:43;101270.09;;;21.89;33.60
9415;BME280;4746;35.664;139.738;2022-10-31T02:05:20;101263.59;;;22.07;33.37
9415;BME280;4746;35.664;139.738;2022-10-31T02:07:59;101263.22;;;22.23;33.27
9415;BME280;4746;35.664;139.738;2022-10-31T02:10:32;101259.44;;;22.36;32.87
9415;BME280;4746;35.664;139.738;2022-10-31T02:13:05;101250.59;;;22.41;32.50
9415;BME280;4746;35.664;139.738;2022-10-31T02:15:35;101256.50;;;22.49;32.60
9415;BME280;4746;35.664;139.738;2022-10-31T02:18:04;101248.31;;;22.63;32.02
9415;BME280;4746;35.664;139.738;2022-10-31T02:21:17;101254.72;;;22.85;32.09
9415;BME280;4746;35.664;139.738;2022-10-31T02:27:05;101231.66;;;22.99;31.88
9415;BME280;4746;35.664;139.738;2022-10-31T02:30:05;101222.34;;;23.20;31.79
9415;BME280;4746;35.664;139.738;2022-10-31T02:33:33;101216.53;;;23.41;31.69
9415;BME280;4746;35.664;139.738;2022-10-31T02:45:04;101215.69;;;23.68;30.29
9415;BME280;4746;35.664;139.738;2022-10-31T02:47:38;101220.69;;;23.77;30.52
9415;BME280;4746;35.664;139.738;2022-10-31T02:50:14;101212.31;;;23.93;30.05
9415;BME280;4746;35.664;139.738;2022-10-31T02:52:43;101210.97;;;24.08;29.94
9415;BME280;4746;35.664;139.738;2022-10-31T02:58:10;101207.78;;;24.52;29.65
9415;BME280;4746;35.664;139.738;2022-10-31T03:03:56;101208.78;;;24.98;29.53
9415;BME280;4746;35.664;139.738;2022-10-31T03:06:35;101209.09;;;25.13;28.94
9415;BME280;4746;35.664;139.738;2022-10-31T03:15:00;101195.97;;;25.82;28.36
9415;BME280;4746;35.664;139.738;2022-10-31T03:18:15;101187.88;;;26.07;28.74
9415;BME280;4746;35.664;139.738;2022-10-31T03:21:06;101190.09;;;26.39;28.34
9415;BME280;4746;35.664;139.738;2022-10-31T03:23:37;101187.34;;;26.62;27.51
9415;BME280;4746;35.664;139.738;2022-10-31T03:26:10;101184.56;;;26.85;27.42
9415;BME280;4746;35.664;139.738;2022-10-31T03:29:02;101180.22;;;27.04;27.17
9415;BME280;4746;35.664;139.738;2022-10-31T03:32:06;101186.78;;;27.14;27.10
9415;BME280;4746;35.664;139.738;2022-10-31T03:34:32;101190.66;;;27.43;26.38
9415;BME280;4746;35.664;139.738;2022-10-31T03:37:07;101193.34;;;28.32;25.06
9415;BME280;4746;35.664;139.738;2022-10-31T03:39:41;101182.53;;;29.04;24.25
9415;BME280;4746;35.664;139.738;2022-10-31T03:42:25;101172.41;;;29.45;23.77
9415;BME280;4746;35.664;139.738;2022-10-31T03:45:11;101170.38;;;29.65;23.60
9415;BME280;4746;35.664;139.738;2022-10-31T03:47:41;101175.31;;;29.71;22.97
9415;BME280;4746;35.664;139.738;2022-10-31T03:50:13;101177.56;;;29.94;22.67
9415;BME280;4746;35.664;139.738;2022-10-31T03:53:09;101169.00;;;30.33;22.38
9415;BME280;4746;35.664;139.738;2022-10-31T03:56:02;101168.38;;;30.59;22.55
9415;BME280;4746;35.664;139.738;2022-10-31T03:58:43;101171.53;;;30.80;22.37
9415;BME280;4746;35.664;139.738;2022-10-31T04:01:16;101167.44;;;30.74;22.61
9415;BME280;4746;35.664;139.738;2022-10-31T04:03:50;101164.91;;;30.87;22.83
9415;BME280;4746;35.664;139.738;2022-10-31T04:06:21;101158.69;;;32.36;21.16
9415;BME280;4746;35.664;139.738;2022-10-31T04:09:01;101157.78;;;34.87;18.85
9415;BME280;4746;35.664;139.738;2022-10-31T04:11:46;101152.41;;;36.89;17.04
9415;BME280;4746;35.664;139.738;2022-10-31T04:14:18;101145.47;;;38.32;16.13
9415;BME280;4746;35.664;139.738;2022-10-31T04:16:45;101143.88;;;39.40;15.15
9415;BME280;4746;35.664;139.738;2022-10-31T04:19:14;101142.84;;;40.12;14.83
9415;BME280;4746;35.664;139.738;2022-10-31T04:21:42;101136.50;;;40.31;14.26
9415;BME280;4746;35.664;139.738;2022-10-31T04:24:13;101133.56;;;40.42;13.96
9415;BME280;4746;35.664;139.738;2022-10-31T04:26:40;101130.97;;;40.75;13.75
9415;BME280;4746;35.664;139.738;2022-10-31T04:29:08;101118.25;;;40.85;13.39
9415;BME280;4746;35.664;139.738;2022-10-31T04:31:35;101128.56;;;40.97;13.16
9415;BME280;4746;35.664;139.738;2022-10-31T04:34:03;101118.31;;;41.34;12.80
9415;BME280;4746;35.664;139.738;2022-10-31T04:36:30;101123.38;;;41.94;12.99
9415;BME280;4746;35.664;139.738;2022-10-31T04:38:58;101110.41;;;42.53;12.36
9415;BME280;4746;35.664;139.738;2022-10-31T04:41:25;101111.72;;;42.89;11.98
9415;BME280;4746;35.664;139.738;2022-10-31T04:43:54;101123.44;;;43.04;12.16
9415;BME280;4746;35.664;139.738;2022-10-31T04:46:21;101117.06;;;43.13;11.85
9415;BME280;4746;35.664;139.738;2022-10-31T04:48:49;101119.75;;;43.73;11.63
9415;BME280;4746;35.664;139.738;2022-10-31T04:51:17;101115.41;;;44.17;11.40
9415;BME280;4746;35.664;139.738;2022-10-31T04:53:44;101121.00;;;44.52;11.13
9415;BME280;4746;35.664;139.738;2022-10-31T04:56:12;101106.41;;;44.76;11.00
9415;BME280;4746;35.664;139.738;2022-10-31T04:58:39;101109.47;;;45.16;10.71
9415;BME280;4746;35.664;139.738;2022-10-31T05:01:07;101106.22;;;45.70;10.83
9415;BME280;4746;35.664;139.738;2022-10-31T05:03:34;101114.41;;;46.39;10.28
9415;BME280;4746;35.664;139.738;2022-10-31T05:06:02;101116.78;;;47.10;9.66
9415;BME280;4746;35.664;139.738;2022-10-31T05:08:29;101120.31;;;47.44;10.09
9415;BME280;4746;35.664;139.738;2022-10-31T05:11:01;101108.75;;;47.42;9.65
9415;BME280;4746;35.664;139.738;2022-10-31T05:13:29;101110.53;;;47.75;9.82
9415;BME280;4746;35.664;139.738;2022-10-31T05:15:57;101104.13;;;46.89;9.82
9415;BME280;4746;35.664;139.738;2022-10-31T05:18:24;101102.72;;;46.39;10.06
9415;BME280;4746;35.664;139.738;2022-10-31T05:20:52;101092.69;;;46.39;9.87
9415;BME280;4746;35.664;139.738;2022-10-31T05:23:19;101093.72;;;46.65;9.79
9415;BME280;4746;35.664;139.738;2022-10-31T05:25:47;101093.41;;;46.81;10.16
9415;BME280;4746;35.664;139.738;2022-10-31T05:28:14;101098.53;;;46.97;9.91
9415;BME280;4746;35.664;139.738;2022-10-31T05:30:42;101103.84;;;47.18;9.59
9415;BME280;4746;35.664;139.738;2022-10-31T05:33:09;101099.63;;;47.56;9.55
9415;BME280;4746;35.664;139.738;2022-10-31T05:35:37;101092.19;;;48.09;9.37
9415;BME280;4746;35.664;139.738;2022-10-31T05:38:04;101097.00;;;47.94;9.38
9415;BME280;4746;35.664;139.738;2022-10-31T05:40:32;101090.31;;;47.24;9.37
9415;BME280;4746;35.664;139.738;2022-10-31T05:42:59;101095.50;;;46.79;10.01
9415;BME280;4746;35.664;139.738;2022-10-31T05:45:27;101090.91;;;46.80;9.81
9415;BME280;4746;35.664;139.738;2022-10-31T05:47:58;101092.78;;;46.79;9.90
9415;BME280;4746;35.664;139.738;2022-10-31T05:50:28;101104.41;;;47.07;9.97
9415;BME280;4746;35.664;139.738;2022-10-31T05:53:07;101095.75;;;47.31;9.20
9415;BME280;4746;35.664;139.738;2022-10-31T05:55:35;101108.09;;;47.27;9.57
9415;BME280;4746;35.664;139.738;2022-10-31T05:58:02;101100.75;;;47.27;9.31
9415;BME280;4746;35.664;139.738;2022-10-31T06:00:30;101100.75;;;47.21;9.21
9415;BME280;4746;35.664;139.738;2022-10-31T06:03:03;101101.13;;;47.18;9.65
9415;BME280;4746;35.664;139.738;2022-10-31T06:05:32;101105.91;;;47.56;9.10
9415;BME280;4746;35.664;139.738;2022-10-31T06:07:59;101109.25;;;47.65;9.59
9415;BME280;4746;35.664;139.738;2022-10-31T06:10:28;101111.44;;;47.88;9.40
9415;BME280;4746;35.664;139.738;2022-10-31T06:12:56;101103.50;;;48.00;9.47
9415;BME280;4746;35.664;139.738;2022-10-31T06:15:23;101107.00;;;47.75;9.22
9415;BME280;4746;35.664;139.738;2022-10-31T06:18:05;101108.09;;;47.93;9.70
9415;BME280;4746;35.664;139.738;2022-10-31T06:20:34;101101.38;;;47.83;9.82
9415;BME280;4746;35.664;139.738;2022-10-31T06:23:02;101099.38;;;47.44;9.71
9415;BME280;4746;35.664;139.738;2022-10-31T06:25:30;101104.88;;;46.77;9.70
9415;BME280;4746;35.664;139.738;2022-10-31T06:27:58;101114.41;;;46.39;9.86
9415;BME280;4746;35.664;139.738;2022-10-31T06:30:25;101122.22;;;46.28;9.83
9415;BME280;4746;35.664;139.738;2022-10-31T06:32:53;101118.03;;;46.04;9.85
9415;BME280;4746;35.664;139.738;2022-10-31T06:35:21;101109.69;;;45.85;10.55
9415;BME280;4746;35.664;139.738;2022-10-31T06:37:53;101122.28;;;45.71;10.56
9415;BME280;4746;35.664;139.738;2022-10-31T06:40:21;101121.91;;;45.60;10.67
9415;BME280;4746;35.664;139.738;2022-10-31T06:42:58;101132.22;;;45.50;10.84
9415;BME280;4746;35.664;139.738;2022-10-31T06:45:26;101127.22;;;45.04;11.19
9415;BME280;4746;35.664;139.738;2022-10-31T06:47:55;101130.66;;;42.33;11.95
9415;BME280;4746;35.664;139.738;2022-10-31T06:50:23;101130.59;;;39.48;13.67
9415;BME280;4746;35.664;139.738;2022-10-31T06:52:56;101144.50;;;37.17;15.46
9415;BME280;4746;35.664;139.738;2022-10-31T06:55:27;101151.75;;;35.40;17.10
9415;BME280;4746;35.664;139.738;2022-10-31T06:57:57;101159.97;;;34.14;17.72
9415;BME280;4746;35.664;139.738;2022-10-31T07:00:27;101161.09;;;33.15;18.80
9415;BME280;4746;35.664;139.738;2022-10-31T07:03:00;101168.97;;;33.17;18.58
9415;BME280;4746;35.664;139.738;2022-10-31T07:05:29;101173.28;;;34.14;18.02
9415;BME280;4746;35.664;139.738;2022-10-31T07:08:02;101179.13;;;35.09;17.54
9415;BME280;4746;35.664;139.738;2022-10-31T07:10:33;101174.72;;;35.85;16.88
9415;BME280;4746;35.664;139.738;2022-10-31T07:13:05;101185.31;;;36.38;16.19
9415;BME280;4746;35.664;139.738;2022-10-31T07:15:39;101185.50;;;36.77;16.17
9415;BME280;4746;35.664;139.738;2022-10-31T07:18:10;101185.94;;;36.82;16.36
9415;BME280;4746;35.664;139.738;2022-10-31T07:20:38;101181.47;;;36.82;15.97
9415;BME280;4746;35.664;139.738;2022-10-31T07:23:06;101180.44;;;36.74;16.52
9415;BME280;4746;35.664;139.738;2022-10-31T07:25:33;101181.78;;;36.48;16.80
9415;BME280;4746;35.664;139.738;2022-10-31T07:28:01;101179.53;;;36.02;17.15
9415;BME280;4746;35.664;139.738;2022-10-31T07:30:28;101185.44;;;35.19;17.50
9415;BME280;4746;35.664;139.738;2022-10-31T07:32:56;101188.81;;;34.31;18.15
9415;BME280;4746;35.664;139.738;2022-10-31T07:35:28;101194.44;;;33.31;19.07
9415;BME280;4746;35.664;139.738;2022-10-31T07:37:56;101208.59;;;32.43;20.12
9415;BME280;4746;35.664;139.738;2022-10-31T07:40:25;101214.31;;;31.43;21.24
9415;BME280;4746;35.664;139.738;2022-10-31T07:42:53;101222.97;;;30.31;22.53
9415;BME280;4746;35.664;139.738;2022-10-31T07:45:22;101235.16;;;29.24;23.99
9415;BME280;4746;35.664;139.738;2022-10-31T07:47:52;101234.84;;;28.29;24.94
9415;BME280;4746;35.664;139.738;2022-10-31T07:50:26;101231.06;;;27.62;25.74
9415;BME280;4746;35.664;139.738;2022-10-31T07:53:06;101237.72;;;27.13;26.54
9415;BME280;4746;35.664;139.738;2022-10-31T07:55:34;101253.88;;;26.64;27.55
9415;BME280;4746;35.664;139.738;2022-10-31T07:58:14;101249.38;;;26.25;27.74
9415;BME280;4746;35.664;139.738;2022-10-31T08:00:46;101238.44;;;25.93;28.90
9415;BME280;4746;35.664;139.738;2022-10-31T08:03:17;101255.31;;;25.63;29.34
9415;BME280;4746;35.664;139.738;2022-10-31T08:05:45;101255.66;;;25.31;30.06
9415;BME280;4746;35.664;139.738;2022-10-31T08:08:15;101255.00;;;25.00;30.63
9415;BME280;4746;35.664;139.738;2022-10-31T08:10:43;101268.56;;;24.62;31.47
9415;BME280;4746;35.664;139.738;2022-10-31T08:13:13;101264.22;;;24.36;31.61
9415;BME280;4746;35.664;139.738;2022-10-31T08:15:41;101273.69;;;24.12;32.43
9415;BME280;4746;35.664;139.738;2022-10-31T08:18:15;101272.50;;;23.95;33.13
9415;BME280;4746;35.664;139.738;2022-10-31T08:20:44;101274.84;;;23.75;33.19
9415;BME280;4746;35.664;139.738;2022-10-31T08:23:13;101272.63;;;23.62;33.59
9415;BME280;4746;35.664;139.738;2022-10-31T08:25:41;101287.72;;;23.52;33.98
9415;BME280;4746;35.664;139.738;2022-10-31T08:28:10;101286.28;;;23.42;34.23
9415;BME280;4746;35.664;139.738;2022-10-31T08:30:39;101287.38;;;23.34;34.64
9415;BME280;4746;35.664;139.738;2022-10-31T08:33:17;101303.16;;;23.31;34.44
9415;BME280;4746;35.664;139.738;2022-10-31T08:35:45;101306.03;;;23.20;34.72
9415;BME280;4746;35.664;139.738;2022-10-31T08:38:14;101300.34;;;23.07;35.00
9415;BME280;4746;35.664;139.738;2022-10-31T08:40:42;101311.88;;;22.97;35.08
9415;BME280;4746;35.664;139.738;2022-10-31T08:43:15;101319.00;;;22.92;35.25
9415;BME280;4746;35.664;139.738;2022-10-31T08:45:47;101317.47;;;22.83;35.02
9415;BME280;4746;35.664;139.738;2022-10-31T08:48:17;101322.91;;;22.76;35.41
9415;BME280;4746;35.664;139.738;2022-10-31T08:50:45;101324.78;;;22.71;35.98
9415;BME280;4746;35.664;139.738;2022-10-31T08:53:17;101333.50;;;22.70;35.91
9415;BME280;4746;35.664;139.738;2022-10-31T08:55:46;101321.47;;;22.63;36.03
9415;BME280;4746;35.664;139.738;2022-10-31T08:58:19;101326.84;;;22.57;35.83
9415;BME280;4746;35.664;139.738;2022-10-31T09:00:50;101327.13;;;22.45;36.26
9415;BME280;4746;35.664;139.738;2022-10-31T09:03:25;101329.84;;;22.42;36.47
9415;BME280;4746;35.664;139.738;2022-10-31T09:06:00;101330.78;;;22.38;36.46
9415;BME280;4746;35.664;139.738;2022-10-31T09:08:33;101348.31;;;22.33;36.89
9415;BME280;4746;35.664;139.738;2022-10-31T09:11:01;101346.72;;;22.26;36.94
9415;BME280;4746;35.664;139.738;2022-10-31T09:13:29;101352.09;;;22.20;37.11
9415;BME280;4746;35.664;139.738;2022-10-31T09:15:57;101350.50;;;22.13;37.35
9415;BME280;4746;35.664;139.738;2022-10-31T09:18:28;101350.63;;;22.07;37.62
9415;BME280;4746;35.664;139.738;2022-10-31T09:20:59;101367.22;;;22.05;38.44
9415;BME280;4746;35.664;139.738;2022-10-31T09:23:27;101365.63;;;21.98;38.20
9415;BME280;4746;35.664;139.738;2022-10-31T09:25:55;101370.03;;;21.94;38.18
9415;BME280;4746;35.664;139.738;2022-10-31T09:28:24;101366.63;;;21.91;38.31
9415;BME280;4746;35.664;139.738;2022-10-31T09:30:54;101365.78;;;21.90;38.51
9415;BME280;4746;35.664;139.738;2022-10-31T09:33:22;101376.22;;;21.90;38.48
9415;BME280;4746;35.664;139.738;2022-10-31T09:35:50;101367.59;;;21.87;38.58
9415;BME280;4746;35.664;139.738;2022-10-31T09:38:20;101372.91;;;21.82;38.86
9415;BME280;4746;35.664;139.738;2022-10-31T09:41:05;101367.75;;;21.79;38.82
9415;BME280;4746;35.664;139.738;2022-10-31T09:53:23;101363.81;;;21.58;39.24
9415;BME280;4746;35.664;139.738;2022-10-31T09:55:54;101370.94;;;21.50;39.94
9415;BME280;4746;35.664;139.738;2022-10-31T09:58:30;101363.91;;;21.55;39.99
9415;BME280;4746;35.664;139.738;2022-10-31T10:01:03;101371.75;;;21.53;40.20
9415;BME280;4746;35.664;139.738;2022-10-31T10:03:41;101372.59;;;21.54;40.13
9415;BME280;4746;35.664;139.738;2022-10-31T10:06:28;101370.88;;;21.53;39.97
9415;BME280;4746;35.664;139.738;2022-10-31T10:08:57;101386.63;;;21.47;40.59
9415;BME280;4746;35.664;139.738;2022-10-31T10:12:02;101371.78;;;21.50;40.24
9415;BME280;4746;35.664;139.738;2022-10-31T10:15:41;101375.31;;;21.48;40.30
9415;BME280;4746;35.664;139.738;2022-10-31T10:24:02;101386.72;;;21.41;40.54
9415;BME280;4746;35.664;139.738;2022-10-31T10:26:43;101386.84;;;21.35;40.87
9415;BME280;4746;35.664;139.738;2022-10-31T10:30:07;101389.41;;;21.36;40.40
9415;BME280;4746;35.664;139.738;2022-10-31T10:41:51;101391.34;;;21.27;41.55
9415;BME280;4746;35.664;139.738;2022-10-31T10:44:45;101399.97;;;21.29;41.63
9415;BME280;4746;35.664;139.738;2022-10-31T10:47:48;101390.44;;;21.28;41.26
9415;BME280;4746;35.664;139.738;2022-10-31T10:50:33;101392.22;;;21.26;41.21
9415;BME280;4746;35.664;139.738;2022-10-31T10:56:36;101407.91;;;21.23;41.08
9415;BME280;4746;35.664;139.738;2022-10-31T10:59:15;101402.78;;;21.17;41.57
9415;BME280;4746;35.664;139.738;2022-10-31T11:01:44;101406.34;;;21.13;41.83
9415;BME280;4746;35.664;139.738;2022-10-31T11:04:27;101398.50;;;21.14;41.92
9415;BME280;4746;35.664;139.738;2022-10-31T11:07:05;101401.19;;;21.11;42.00
9415;BME280;4746;35.664;139.738;2022-10-31T11:09:35;101411.59;;;21.10;41.86
9415;BME280;4746;35.664;139.738;2022-10-31T11:12:29;101409.00;;;21.11;41.54
9415;BME280;4746;35.664;139.738;2022-10-31T11:15:02;101402.19;;;21.03;41.91
9415;BME280;4746;35.664;139.738;2022-10-31T11:17:38;101407.41;;;21.03;42.14
9415;BME280;4746;35.664;139.738;2022-10-31T11:22:47;101404.81;;;21.00;42.09
9415;BME280;4746;35.664;139.738;2022-10-31T11:28:10;101414.34;;;21.02;42.08
9415;BME280;4746;35.664;139.738;2022-10-31T11:31:15;101408.31;;;21.00;41.97
9415;BME280;4746;35.664;139.738;2022-10-31T11:33:46;101409.22;;;20.96;42.21
9415;BME280;4746;35.664;139.738;2022-10-31T11:36:24;101401.38;;;20.98;41.99
9415;BME280;4746;35.664;139.738;2022-10-31T11:38:54;101403.19;;;20.93;42.12
9415;BME280;4746;35.664;139.738;2022-10-31T11:41:34;101409.19;;;20.98;42.32
9415;BME280;4746;35.664;139.738;2022-10-31T11:44:18;101401.38;;;20.99;42.26
9415;BME280;4746;35.664;139.738;2022-10-31T11:46:52;101391.81;;;20.98;42.54
9415;BME280;4746;35.664;139.738;2022-10-31T11:49:41;101392.59;;;21.03;42.04
9415;BME280;4746;35.664;139.738;2022-10-31T11:52:25;101386.56;;;21.01;42.60
9415;BME280;4746;35.664;139.738;2022-10-31T11:55:16;101376.94;;;21.05;42.33
9415;BME280;4746;35.664;139.738;2022-10-31T11:57:56;101389.16;;;21.03;42.38
9415;BME280;4746;35.664;139.738;2022-10-31T12:00:28;101386.63;;;20.98;42.41
9415;BME280;4746;35.664;139.738;2022-10-31T12:06:17;101393.50;;;21.02;42.55
9415;BME280;4746;35.664;139.738;2022-10-31T12:08:48;101400.56;;;20.96;42.77
9415;BME280;4746;35.664;139.738;2022-10-31T12:15:33;101398.72;;;21.01;42.39
9415;BME280;4746;35.664;139.738;2022-10-31T12:30:16;101391.28;;;20.80;42.70
9415;BME280;4746;35.664;139.738;2022-10-31T12:39:45;101393.13;;;20.69;42.53
9415;BME280;4746;35.664;139.738;2022-10-31T12:46:00;101381.13;;;20.59;42.94
9415;BME280;4746;35.664;139.738;2022-10-31T12:49:16;101387.28;;;20.55;43.04
9415;BME280;4746;35.664;139.738;2022-10-31T12:55:09;101386.47;;;20.52;43.40
9415;BME280;4746;35.664;139.738;2022-10-31T12:58:01;101383.03;;;20.48;43.59
9415;BME280;4746;35.664;139.738;2022-10-31T13:00:34;101370.91;;;20.47;43.94
9415;BME280;4746;35.664;139.738;2022-10-31T13:03:48;101372.63;;;20.48;43.54
9415;BME280;4746;35.664;139.738;2022-10-31T13:06:24;101370.94;;;20.43;44.13
9415;BME280;4746;35.664;139.738;2022-10-31T13:09:04;101370.13;;;20.39;44.40
9415;BME280;4746;35.664;139.738;2022-10-31T13:11:53;101370.16;;;20.38;44.07
9415;BME280;4746;35.664;139.738;2022-10-31T13:14:46;101372.78;;;20.36;44.50
9415;BME280;4746;35.664;139.738;2022-10-31T13:17:39;101373.72;;;20.32;44.83
9415;BME280;4746;35.664;139.738;2022-10-31T13:20:20;101373.81;;;20.26;44.91
9415;BME280;4746;35.664;139.738;2022-10-31T13:23:34;101372.97;;;20.24;44.78
9415;BME280;4746;35.664;139.738;2022-10-31T13:26:13;101372.16;;;20.21;45.33
9415;BME280;4746;35.664;139.738;2022-10-31T13:31:41;101357.47;;;20.17;45.81
9415;BME280;4746;35.664;139.738;2022-10-31T13:34:42;101355.75;;;20.15;45.61
9415;BME280;4746;35.664;139.738;2022-10-31T13:43:01;101350.75;;;20.00;46.21
9415;BME280;4746;35.664;139.738;2022-10-31T13:45:30;101349.13;;;19.90;47.31
9415;BME280;4746;35.664;139.738;2022-10-31T13:50:59;101363.94;;;19.83;46.92
9415;BME280;4746;35.664;139.738;2022-10-31T13:54:01;101363.13;;;19.78;46.68
9415;BME280;4746;35.664;139.738;2022-10-31T13:56:35;101356.34;;;19.67;47.30
9415;BME280;4746;35.664;139.738;2022-10-31T13:59:18;101356.34;;;19.67;47.44
9415;BME280;4746;35.664;139.738;2022-10-31T14:01:57;101357.28;;;19.60;47.87
9415;BME280;4746;35.664;139.738;2022-10-31T14:04:48;101358.22;;;19.56;48.00
9415;BME280;4746;35.664;139.738;2022-10-31T14:07:22;101354.81;;;19.48;48.04
9415;BME280;4746;35.664;139.738;2022-10-31T14:10:03;101360.00;;;19.48;48.23
9415;BME280;4746;35.664;139.738;2022-10-31T14:12:42;101364.34;;;19.46;48.34
9415;BME280;4746;35.664;139.738;2022-10-31T14:15:22;101351.41;;;19.43;48.53
9415;BME280;4746;35.664;139.738;2022-10-31T14:18:03;101357.53;;;19.38;48.59
9415;BME280;4746;35.664;139.738;2022-10-31T14:20:44;101345.47;;;19.32;48.33
9415;BME280;4746;35.664;139.738;2022-10-31T14:32:04;101369.84;;;19.22;48.77
9415;BME280;4746;35.664;139.738;2022-10-31T14:34:57;101360.31;;;19.18;48.58
9415;BME280;4746;35.664;139.738;2022-10-31T14:40:48;101344.81;;;19.06;48.91
9415;BME280;4746;35.664;139.738;2022-10-31T14:43:50;101354.38;;;19.03;48.82
9415;BME280;4746;35.664;139.738;2022-10-31T14:49:41;101355.31;;;18.94;49.07
9415;BME280;4746;35.664;139.738;2022-10-31T14:52:17;101362.28;;;18.89;49.26
9415;BME280;4746;35.664;139.738;2022-10-31T14:54:54;101343.25;;;18.87;49.38
9415;BME280;4746;35.664;139.738;2022-10-31T14:57:36;101348.47;;;18.86;49.40
9415;BME280;4746;35.664;139.738;2022-10-31T15:00:14;101353.72;;;18.79;49.55
9415;BME280;4746;35.664;139.738;2022-10-31T15:03:16;101345.13;;;18.74;49.43
9415;BME280;4746;35.664;139.738;2022-10-31T15:05:55;101336.56;;;18.63;49.61
9415;BME280;4746;35.664;139.738;2022-10-31T15:08:51;101333.13;;;18.58;49.56
9415;BME280;4746;35.664;139.738;2022-10-31T15:11:25;101334.03;;;18.51;49.82
9415;BME280;4746;35.664;139.738;2022-10-31T15:13:55;101334.06;;;18.46;49.79
9415;BME280;4746;35.664;139.738;2022-10-31T15:16:40;101320.22;;;18.44;49.67
9415;BME280;4746;35.664;139.738;2022-10-31T15:19:27;101325.47;;;18.41;49.58
9415;BME280;4746;35.664;139.738;2022-10-31T15:21:57;101316.88;;;18.32;49.42
9415;BME280;4746;35.664;139.738;2022-10-31T15:24:37;101316.88;;;18.32;49.16
9415;BME280;4746;35.664;139.738;2022-10-31T15:27:14;101305.66;;;18.24;49.21
9415;BME280;4746;35.664;139.738;2022-10-31T15:29:57;101307.44;;;18.22;49.41
9415;BME280;4746;35.664;139.738;2022-10-31T15:32:28;101307.44;;;18.14;49.46